sensor_id;sensor_type;location;lat;lon;timestamp;pressure;altitude;pressure_sealevel;temperature;humidity
21664;BME280;10993;52.510;13.456;2024-01-07T00:02:13;57058.91;;;-146.93;72.80
21664;BME280;10993;52.510;13.456;2024-01-07T00:07:13;56941.44;;;-146.93;72.71
21664;BME280;10993;52.510;13.456;2024-01-07T00:12:14;56977.91;;;-146.93;72.23
21664;BME280;10993;52.510;13.456;2024-01-07T00:17:16;57024.47;;;-146.93;72.64
21664;BME280;10993;52.510;13.456;2024-01-07T00:22:16;56961.69;;;-146.93;73.37
21664;BME280;10993;52.510;13.456;2024-01-07T00:27:17;57014.34;;;-146.93;74.45
21664;BME280;10993;52.510;13.456;2024-01-07T00:32:19;57020.44;;;-146.93;73.46
21664;BME280;10993;52.510;13.456;2024-01-07T00:37:19;56971.81;;;-146.93;73.09
21664;BME280;10993;52.510;13.456;2024-01-07T00:42:20;57067.00;;;-146.93;72.77
21664;BME280;10993;52.510;13.456;2024-01-07T00:47:22;57018.41;;;-146.93;71.58
21664;BME280;10993;52.510;13.456;2024-01-07T00:52:22;57014.34;;;-146.93;70.45
21664;BME280;10993;52.510;13.456;2024-01-07T00:57:23;56988.03;;;-146.93;70.15
21664;BME280;10993;52.510;13.456;2024-01-07T01:02:25;56925.25;;;-146.93;70.65
21664;BME280;10993;52.510;13.456;2024-01-07T01:07:25;56955.63;;;-146.93;69.09
21664;BME280;10993;52.510;13.456;2024-01-07T01:12:25;56990.06;;;-146.93;68.24
21664;BME280;10993;52.510;13.456;2024-01-07T01:17:27;56953.59;;;-146.93;67.34
21664;BME280;10993;52.510;13.456;2024-01-07T01:22:27;56983.97;;;-146.93;66.85
21664;BME280;10993;52.510;13.456;2024-01-07T01:27:27;56992.06;;;-146.93;67.58
21664;BME280;10993;52.510;13.456;2024-01-07T01:32:29;56945.50;;;-146.93;67.33
21664;BME280;10993;52.510;13.456;2024-01-07T01:37:29;56961.69;;;-146.93;67.32
21664;BME280;10993;52.510;13.456;2024-01-07T01:42:32;56945.50;;;-146.93;66.03
21664;BME280;10993;52.510;13.456;2024-01-07T01:47:34;56977.91;;;-146.93;66.26
21664;BME280;10993;52.510;13.456;2024-01-07T01:52:34;56977.91;;;-146.93;65.80
21664;BME280;10993;52.510;13.456;2024-01-07T01:57:36;56979.94;;;-146.93;66.09
21664;BME280;10993;52.510;13.456;2024-01-07T02:02:39;56939.44;;;-146.93;66.17
21664;BME280;10993;52.510;13.456;2024-01-07T02:07:40;56983.97;;;-146.93;65.82
21664;BME280;10993;52.510;13.456;2024-01-07T02:12:40;56983.97;;;-146.93;66.05
21664;BME280;10993;52.510;13.456;2024-01-07T02:17:42;56981.94;;;-146.93;65.51
21664;BME280;10993;52.510;13.456;2024-01-07T02:22:42;56994.09;;;-146.93;66.50
21664;BME280;10993;52.510;13.456;2024-01-07T02:27:44;57036.63;;;-146.93;67.23
21664;BME280;10993;52.510;13.456;2024-01-07T02:32:44;56969.81;;;-146.93;68.24
21664;BME280;10993;52.510;13.456;2024-01-07T02:37:44;57002.19;;;-146.93;68.70
21664;BME280;10993;52.510;13.456;2024-01-07T02:42:46;57012.31;;;-146.93;68.92
21664;BME280;10993;52.510;13.456;2024-01-07T02:47:46;57006.25;;;-146.93;69.45
21664;BME280;10993;52.510;13.456;2024-01-07T02:52:46;57048.78;;;-146.93;69.41
21664;BME280;10993;52.510;13.456;2024-01-07T02:57:48;57020.44;;;-146.93;69.47
21664;BME280;10993;52.510;13.456;2024-01-07T03:02:48;57034.59;;;-146.93;68.53
21664;BME280;10993;52.510;13.456;2024-01-07T03:07:49;56996.13;;;-146.93;69.02
21664;BME280;10993;52.510;13.456;2024-01-07T03:12:50;57044.72;;;-146.93;69.09
21664;BME280;10993;52.510;13.456;2024-01-07T03:17:50;57030.56;;;-146.93;68.89
21664;BME280;10993;52.510;13.456;2024-01-07T03:22:51;57038.66;;;-146.93;69.02
21664;BME280;10993;52.510;13.456;2024-01-07T03:27:52;56973.84;;;-146.93;68.76
21664;BME280;10993;52.510;13.456;2024-01-07T03:32:53;56988.03;;;-146.93;69.69
21664;BME280;10993;52.510;13.456;2024-01-07T03:37:54;57024.47;;;-146.93;69.46
21664;BME280;10993;52.510;13.456;2024-01-07T03:42:56;57026.50;;;-146.93;69.47
21664;BME280;10993;52.510;13.456;2024-01-07T03:47:56;57054.84;;;-146.93;69.56
21664;BME280;10993;52.510;13.456;2024-01-07T03:52:56;57081.19;;;-146.93;69.52
21664;BME280;10993;52.510;13.456;2024-01-07T03:57:58;57050.81;;;-146.93;69.71
21664;BME280;10993;52.510;13.456;2024-01-07T04:02:58;57690.75;;;-146.93;68.68
21664;BME280;10993;52.510;13.456;2024-01-07T04:07:59;57046.75;;;-146.93;68.10
21664;BME280;10993;52.510;13.456;2024-01-07T04:13:01;57077.13;;;-146.93;68.16
21664;BME280;10993;52.510;13.456;2024-01-07T04:18:01;57083.19;;;-146.93;67.30
21664;BME280;10993;52.510;13.456;2024-01-07T04:23:03;57040.69;;;-146.93;67.56
21664;BME280;10993;52.510;13.456;2024-01-07T04:28:05;57046.75;;;-146.93;68.31
21664;BME280;10993;52.510;13.456;2024-01-07T04:33:06;57060.94;;;-146.93;68.22
21664;BME280;10993;52.510;13.456;2024-01-07T04:38:06;57022.44;;;-146.93;67.85
21664;BME280;10993;52.510;13.456;2024-01-07T04:43:07;57042.69;;;-146.93;68.07
21664;BME280;10993;52.510;13.456;2024-01-07T04:48:08;57038.66;;;-146.93;68.30
21664;BME280;10993;52.510;13.456;2024-01-07T04:53:08;57034.59;;;-146.93;67.71
21664;BME280;10993;52.510;13.456;2024-01-07T04:58:10;57073.06;;;-146.93;67.69
21664;BME280;10993;52.510;13.456;2024-01-07T05:03:11;57062.94;;;-146.93;67.61
21664;BME280;10993;52.510;13.456;2024-01-07T05:08:11;57046.75;;;-146.93;67.26
21664;BME280;10993;52.510;13.456;2024-01-07T05:13:13;57079.16;;;-146.93;67.96
21664;BME280;10993;52.510;13.456;2024-01-07T05:18:13;57010.31;;;-146.93;68.31
21664;BME280;10993;52.510;13.456;2024-01-07T05:23:13;57062.94;;;-146.93;68.40
21664;BME280;10993;52.510;13.456;2024-01-07T05:28:15;57056.88;;;-146.93;68.19
21664;BME280;10993;52.510;13.456;2024-01-07T05:33:19;57046.75;;;-146.93;68.68
21664;BME280;10993;52.510;13.456;2024-01-07T05:38:19;57006.25;;;-146.93;68.92
21664;BME280;10993;52.510;13.456;2024-01-07T05:43:21;57054.84;;;-146.93;69.57
21664;BME280;10993;52.510;13.456;2024-01-07T05:48:22;56977.91;;;-146.93;70.00
21664;BME280;10993;52.510;13.456;2024-01-07T05:53:22;57077.13;;;-146.93;70.05
21664;BME280;10993;52.510;13.456;2024-01-07T05:58:24;57004.22;;;-146.93;69.56
21664;BME280;10993;52.510;13.456;2024-01-07T06:03:24;56973.84;;;-146.93;69.56
21664;BME280;10993;52.510;13.456;2024-01-07T06:08:24;56977.91;;;-146.93;68.77
21664;BME280;10993;52.510;13.456;2024-01-07T06:13:26;56992.06;;;-146.93;69.09
21664;BME280;10993;52.510;13.456;2024-01-07T06:18:26;57026.50;;;-146.93;69.62
21664;BME280;10993;52.510;13.456;2024-01-07T06:23:27;57024.47;;;-146.93;68.62
21664;BME280;10993;52.510;13.456;2024-01-07T06:28:28;56965.75;;;-146.93;68.45
21664;BME280;10993;52.510;13.456;2024-01-07T06:33:29;57020.44;;;-146.93;69.07
21664;BME280;10993;52.510;13.456;2024-01-07T06:38:29;57046.75;;;-146.93;68.88
21664;BME280;10993;52.510;13.456;2024-01-07T06:43:31;56981.94;;;-146.93;69.57
21664;BME280;10993;52.510;13.456;2024-01-07T06:48:32;57004.22;;;-146.93;67.97
21664;BME280;10993;52.510;13.456;2024-01-07T06:53:32;57026.50;;;-146.93;67.58
21664;BME280;10993;52.510;13.456;2024-01-07T06:58:34;58241.69;;;-146.93;68.00
21664;BME280;10993;52.510;13.456;2024-01-07T07:03:34;57018.41;;;-146.93;67.82
21664;BME280;10993;52.510;13.456;2024-01-07T07:08:34;56994.09;;;-146.93;66.69
21664;BME280;10993;52.510;13.456;2024-01-07T07:13:36;57032.56;;;-146.93;66.51
21664;BME280;10993;52.510;13.456;2024-01-07T07:18:38;56990.06;;;-146.93;66.71
21664;BME280;10993;52.510;13.456;2024-01-07T07:23:38;56998.16;;;-146.93;66.38
21664;BME280;10993;52.510;13.456;2024-01-07T07:28:40;56951.59;;;-146.93;66.98
21664;BME280;10993;52.510;13.456;2024-01-07T07:33:40;56986.00;;;-146.93;66.33
21664;BME280;10993;52.510;13.456;2024-01-07T07:38:40;56957.66;;;-146.93;65.26
21664;BME280;10993;52.510;13.456;2024-01-07T07:43:42;56969.81;;;-146.93;64.64
21664;BME280;10993;52.510;13.456;2024-01-07T07:48:42;56977.91;;;-146.93;66.60
21664;BME280;10993;52.510;13.456;2024-01-07T07:53:42;56988.03;;;-146.93;65.84
21664;BME280;10993;52.510;13.456;2024-01-07T07:58:44;56959.69;;;-146.93;65.98
21664;BME280;10993;52.510;13.456;2024-01-07T08:03:44;56969.81;;;-146.93;65.41
21664;BME280;10993;52.510;13.456;2024-01-07T08:08:45;56969.81;;;-146.93;64.95
21664;BME280;10993;52.510;13.456;2024-01-07T08:13:46;57006.25;;;-146.93;65.35
21664;BME280;10993;52.510;13.456;2024-01-07T08:18:47;56937.41;;;-146.93;64.96
21664;BME280;10993;52.510;13.456;2024-01-07T08:23:48;56959.69;;;-146.93;65.79
21664;BME280;10993;52.510;13.456;2024-01-07T08:28:49;56953.59;;;-146.93;64.02
21664;BME280;10993;52.510;13.456;2024-01-07T08:33:49;56931.34;;;-146.93;64.62
21664;BME280;10993;52.510;13.456;2024-01-07T08:38:50;56957.66;;;-146.93;63.49
21664;BME280;10993;52.510;13.456;2024-01-07T08:43:52;56937.41;;;-146.93;63.28
21664;BME280;10993;52.510;13.456;2024-01-07T08:48:52;56909.06;;;-146.93;61.85
21664;BME280;10993;52.510;13.456;2024-01-07T08:53:52;56949.56;;;-146.93;62.87
21664;BME280;10993;52.510;13.456;2024-01-07T08:58:54;56927.28;;;-146.93;62.26
21664;BME280;10993;52.510;13.456;2024-01-07T09:03:54;56850.34;;;-146.93;62.03
21664;BME280;10993;52.510;13.456;2024-01-07T09:08:54;56898.94;;;-146.93;61.64
21664;BME280;10993;52.510;13.456;2024-01-07T09:13:56;56880.72;;;-146.93;61.92
21664;BME280;10993;52.510;13.456;2024-01-07T09:18:56;56917.16;;;-146.93;61.12
21664;BME280;10993;52.510;13.456;2024-01-07T09:23:57;56965.75;;;-146.93;61.79
21664;BME280;10993;52.510;13.456;2024-01-07T09:28:58;56848.31;;;-146.93;61.75
21664;BME280;10993;52.510;13.456;2024-01-07T09:33:58;56864.50;;;-146.93;62.46
21664;BME280;10993;52.510;13.456;2024-01-07T09:38:59;56868.56;;;-146.93;61.88
21664;BME280;10993;52.510;13.456;2024-01-07T09:44:01;56876.66;;;-146.93;63.27
21664;BME280;10993;52.510;13.456;2024-01-07T09:49:02;56864.50;;;-146.93;62.52
21664;BME280;10993;52.510;13.456;2024-01-07T09:54:03;56882.72;;;-146.93;64.32
21664;BME280;10993;52.510;13.456;2024-01-07T09:59:06;56868.56;;;-146.93;64.74
21664;BME280;10993;52.510;13.456;2024-01-07T10:04:06;56927.28;;;-146.93;66.03
21664;BME280;10993;52.510;13.456;2024-01-07T10:09:06;56935.38;;;-146.93;67.10
21664;BME280;10993;52.510;13.456;2024-01-07T10:14:08;56937.41;;;-146.93;67.23
21664;BME280;10993;52.510;13.456;2024-01-07T10:19:08;56842.22;;;-146.93;67.15
21664;BME280;10993;52.510;13.456;2024-01-07T10:24:09;56907.03;;;-146.93;68.01
21664;BME280;10993;52.510;13.456;2024-01-07T10:29:11;56927.28;;;-146.93;68.06
21664;BME280;10993;52.510;13.456;2024-01-07T10:34:13;56706.56;;;-146.93;67.67
21664;BME280;10993;52.510;13.456;2024-01-07T10:39:13;56868.56;;;-146.93;68.19
21664;BME280;10993;52.510;13.456;2024-01-07T10:44:17;56886.78;;;-146.93;68.12
21664;BME280;10993;52.510;13.456;2024-01-07T10:49:19;56907.03;;;-146.93;68.56
21664;BME280;10993;52.510;13.456;2024-01-07T10:54:28;56896.91;;;-146.93;69.19
21664;BME280;10993;52.510;13.456;2024-01-07T10:59:30;56896.91;;;-146.93;69.47
21664;BME280;10993;52.510;13.456;2024-01-07T11:04:39;56894.88;;;-146.93;68.97
21664;BME280;10993;52.510;13.456;2024-01-07T11:09:50;56905.00;;;-146.93;67.86
21664;BME280;10993;52.510;13.456;2024-01-07T11:14:55;56894.88;;;-146.93;67.84
21664;BME280;10993;52.510;13.456;2024-01-07T11:19:59;56876.66;;;-146.93;67.74
21664;BME280;10993;52.510;13.456;2024-01-07T11:25:00;56949.56;;;-146.93;68.46
21664;BME280;10993;52.510;13.456;2024-01-07T11:30:05;56898.94;;;-146.93;69.15
21664;BME280;10993;52.510;13.456;2024-01-07T11:35:07;56937.41;;;-146.93;69.49
21664;BME280;10993;52.510;13.456;2024-01-07T11:40:08;56813.88;;;-146.93;69.98
21664;BME280;10993;52.510;13.456;2024-01-07T11:45:10;56896.91;;;-146.93;70.11
21664;BME280;10993;52.510;13.456;2024-01-07T11:50:10;56898.94;;;-146.93;69.78
21664;BME280;10993;52.510;13.456;2024-01-07T11:55:11;56925.25;;;-146.93;71.27
21664;BME280;10993;52.510;13.456;2024-01-07T12:00:14;56892.84;;;-146.93;71.28
21664;BME280;10993;52.510;13.456;2024-01-07T12:05:15;56961.69;;;-146.93;72.89
21664;BME280;10993;52.510;13.456;2024-01-07T12:10:16;56886.78;;;-146.93;73.00
21664;BME280;10993;52.510;13.456;2024-01-07T12:15:20;56992.06;;;-146.93;73.57
21664;BME280;10993;52.510;13.456;2024-01-07T12:20:20;57000.19;;;-146.93;73.94
21664;BME280;10993;52.510;13.456;2024-01-07T12:25:21;56975.88;;;-146.93;73.90
21664;BME280;10993;52.510;13.456;2024-01-07T12:30:25;56963.72;;;-146.93;73.83
21664;BME280;10993;52.510;13.456;2024-01-07T12:35:26;56949.56;;;-146.93;73.26
21664;BME280;10993;52.510;13.456;2024-01-07T12:40:27;56945.50;;;-146.93;73.42
21664;BME280;10993;52.510;13.456;2024-01-07T12:45:28;56973.84;;;-146.93;74.36
21664;BME280;10993;52.510;13.456;2024-01-07T12:50:29;56983.97;;;-146.93;74.06
21664;BME280;10993;52.510;13.456;2024-01-07T12:55:32;57028.53;;;-146.93;74.63
21664;BME280;10993;52.510;13.456;2024-01-07T13:00:33;57026.50;;;-146.93;76.38
21664;BME280;10993;52.510;13.456;2024-01-07T13:05:35;57081.19;;;-146.93;77.37
21664;BME280;10993;52.510;13.456;2024-01-07T13:10:36;57067.00;;;-146.93;78.31
21664;BME280;10993;52.510;13.456;2024-01-07T13:15:37;57073.06;;;-146.93;78.56
21664;BME280;10993;52.510;13.456;2024-01-07T13:20:38;56672.16;;;-146.93;80.01
21664;BME280;10993;52.510;13.456;2024-01-07T13:25:39;57216.84;;;-146.93;81.47
21664;BME280;10993;52.510;13.456;2024-01-07T13:30:41;57220.91;;;-146.93;81.01
21664;BME280;10993;52.510;13.456;2024-01-07T13:35:42;57178.38;;;-146.93;81.26
21664;BME280;10993;52.510;13.456;2024-01-07T13:40:42;57630.00;;;-146.93;82.86
21664;BME280;10993;52.510;13.456;2024-01-07T13:45:44;57269.50;;;-146.93;82.79
21664;BME280;10993;52.510;13.456;2024-01-07T13:50:45;57332.28;;;-146.93;82.85
21664;BME280;10993;52.510;13.456;2024-01-07T13:55:45;57316.09;;;-146.93;82.79
21664;BME280;10993;52.510;13.456;2024-01-07T14:00:48;57301.91;;;-146.93;83.05
21664;BME280;10993;52.510;13.456;2024-01-07T14:05:48;57303.94;;;-146.93;82.78
21664;BME280;10993;52.510;13.456;2024-01-07T14:10:48;57360.63;;;-146.93;83.36
21664;BME280;10993;52.510;13.456;2024-01-07T14:15:50;57310.00;;;-146.93;82.75
21664;BME280;10993;52.510;13.456;2024-01-07T14:20:50;57358.63;;;-146.93;83.69
21664;BME280;10993;52.510;13.456;2024-01-07T14:25:51;57283.69;;;-146.93;82.28
21664;BME280;10993;52.510;13.456;2024-01-07T14:30:52;57301.91;;;-146.93;82.55
21664;BME280;10993;52.510;13.456;2024-01-07T14:35:53;57275.59;;;-146.93;82.20
21664;BME280;10993;52.510;13.456;2024-01-07T14:40:53;57204.69;;;-146.93;81.72
21664;BME280;10993;52.510;13.456;2024-01-07T14:45:55;57330.25;;;-146.93;82.50
21664;BME280;10993;52.510;13.456;2024-01-07T14:50:55;57273.56;;;-146.93;81.97
21664;BME280;10993;52.510;13.456;2024-01-07T14:55:55;57299.88;;;-146.93;82.13
21664;BME280;10993;52.510;13.456;2024-01-07T15:00:59;57293.81;;;-146.93;82.65
21664;BME280;10993;52.510;13.456;2024-01-07T15:05:59;57297.84;;;-146.93;82.72
21664;BME280;10993;52.510;13.456;2024-01-07T15:11:00;57314.06;;;-146.93;83.17
21664;BME280;10993;52.510;13.456;2024-01-07T15:16:01;57305.97;;;-146.93;83.27
21664;BME280;10993;52.510;13.456;2024-01-07T15:21:02;57364.69;;;-146.93;83.37
21664;BME280;10993;52.510;13.456;2024-01-07T15:26:03;57160.16;;;-146.93;83.28
21664;BME280;10993;52.510;13.456;2024-01-07T15:31:05;57366.72;;;-146.93;81.90
21664;BME280;10993;52.510;13.456;2024-01-07T15:36:06;57184.44;;;-146.93;80.79
21664;BME280;10993;52.510;13.456;2024-01-07T15:41:07;57206.72;;;-146.93;80.61
21664;BME280;10993;52.510;13.456;2024-01-07T15:46:09;57168.25;;;-146.93;79.62
21664;BME280;10993;52.510;13.456;2024-01-07T15:51:09;57125.72;;;-146.93;78.14
21664;BME280;10993;52.510;13.456;2024-01-07T15:56:10;57014.34;;;-146.93;72.71
21664;BME280;10993;52.510;13.456;2024-01-07T16:01:11;56953.59;;;-146.93;72.10
21664;BME280;10993;52.510;13.456;2024-01-07T16:06:12;57004.22;;;-146.93;71.95
21664;BME280;10993;52.510;13.456;2024-01-07T16:11:12;57002.19;;;-146.93;71.08
21664;BME280;10993;52.510;13.456;2024-01-07T16:16:17;56945.50;;;-146.93;69.56
21664;BME280;10993;52.510;13.456;2024-01-07T16:21:18;56896.91;;;-146.93;69.12
21664;BME280;10993;52.510;13.456;2024-01-07T16:26:20;56939.44;;;-146.93;69.52
21664;BME280;10993;52.510;13.456;2024-01-07T16:31:22;56953.59;;;-146.93;69.59
21664;BME280;10993;52.510;13.456;2024-01-07T16:36:22;56929.31;;;-146.93;69.60
21664;BME280;10993;52.510;13.456;2024-01-07T16:41:23;56961.69;;;-146.93;69.17
21664;BME280;10993;52.510;13.456;2024-01-07T16:46:24;56957.66;;;-146.93;70.25
21664;BME280;10993;52.510;13.456;2024-01-07T16:51:25;56925.25;;;-146.93;69.67
21664;BME280;10993;52.510;13.456;2024-01-07T16:56:25;56941.44;;;-146.93;69.71
21664;BME280;10993;52.510;13.456;2024-01-07T17:01:27;56909.06;;;-146.93;69.59
21664;BME280;10993;52.510;13.456;2024-01-07T17:06:27;56933.34;;;-146.93;69.88
21664;BME280;10993;52.510;13.456;2024-01-07T17:11:27;56969.81;;;-146.93;70.83
21664;BME280;10993;52.510;13.456;2024-01-07T17:16:29;56955.63;;;-146.93;70.84
21664;BME280;10993;52.510;13.456;2024-01-07T17:21:30;56990.06;;;-146.93;70.57
21664;BME280;10993;52.510;13.456;2024-01-07T17:26:30;56961.69;;;-146.93;70.05
21664;BME280;10993;52.510;13.456;2024-01-07T17:31:32;56967.78;;;-146.93;71.33
21664;BME280;10993;52.510;13.456;2024-01-07T17:36:32;56973.84;;;-146.93;70.83
21664;BME280;10993;52.510;13.456;2024-01-07T17:41:34;56925.25;;;-146.93;71.54
21664;BME280;10993;52.510;13.456;2024-01-07T17:46:36;56963.72;;;-146.93;70.80
21664;BME280;10993;52.510;13.456;2024-01-07T17:51:36;56943.47;;;-146.93;71.58
21664;BME280;10993;52.510;13.456;2024-01-07T17:56:39;56951.59;;;-146.93;72.24
21664;BME280;10993;52.510;13.456;2024-01-07T18:01:44;56953.59;;;-146.93;72.29
21664;BME280;10993;52.510;13.456;2024-01-07T18:06:45;56996.13;;;-146.93;73.55
21664;BME280;10993;52.510;13.456;2024-01-07T18:11:45;56961.69;;;-146.93;73.16
21664;BME280;10993;52.510;13.456;2024-01-07T18:16:47;57241.16;;;-146.93;73.35
21664;BME280;10993;52.510;13.456;2024-01-07T18:21:48;57026.50;;;-146.93;73.99
21664;BME280;10993;52.510;13.456;2024-01-07T18:26:48;57006.25;;;-146.93;73.42
21664;BME280;10993;52.510;13.456;2024-01-07T18:31:57;56990.06;;;-146.93;71.19
21664;BME280;10993;52.510;13.456;2024-01-07T18:36:57;56977.91;;;-146.93;71.89
21664;BME280;10993;52.510;13.456;2024-01-07T18:41:57;56986.00;;;-146.93;70.61
21664;BME280;10993;52.510;13.456;2024-01-07T18:46:59;56945.50;;;-146.93;69.59
21664;BME280;10993;52.510;13.456;2024-01-07T18:51:59;56876.66;;;-146.93;67.96
21664;BME280;10993;52.510;13.456;2024-01-07T18:57:00;56957.66;;;-146.93;67.49
21664;BME280;10993;52.510;13.456;2024-01-07T19:02:02;56957.66;;;-146.93;65.58
21664;BME280;10993;52.510;13.456;2024-01-07T19:07:03;56775.41;;;-146.93;64.51
21664;BME280;10993;52.510;13.456;2024-01-07T19:12:04;56902.97;;;-146.93;64.10
21664;BME280;10993;52.510;13.456;2024-01-07T19:17:06;56900.97;;;-146.93;64.31
21664;BME280;10993;52.510;13.456;2024-01-07T19:22:06;56957.66;;;-146.93;65.01
21664;BME280;10993;52.510;13.456;2024-01-07T19:27:08;56967.78;;;-146.93;65.42
21664;BME280;10993;52.510;13.456;2024-01-07T19:32:10;56909.06;;;-146.93;59.55
21664;BME280;10993;52.510;13.456;2024-01-07T19:37:12;56939.44;;;-146.93;52.49
21664;BME280;10993;52.510;13.456;2024-01-07T19:42:14;56941.44;;;-146.93;49.47
21664;BME280;10993;52.510;13.456;2024-01-07T19:47:16;56925.25;;;-146.93;49.42
21664;BME280;10993;52.510;13.456;2024-01-07T19:52:17;56977.91;;;-146.93;47.34
21664;BME280;10993;52.510;13.456;2024-01-07T19:57:18;57376.84;;;-146.93;43.24
21664;BME280;10993;52.510;13.456;2024-01-07T20:02:19;56975.88;;;-146.93;41.78
21664;BME280;10993;52.510;13.456;2024-01-07T20:07:19;56986.00;;;-146.93;41.24
21664;BME280;10993;52.510;13.456;2024-01-07T20:12:20;57459.88;;;-146.93;40.47
21664;BME280;10993;52.510;13.456;2024-01-07T20:17:21;57022.44;;;-146.93;39.93
21664;BME280;10993;52.510;13.456;2024-01-07T20:22:22;58197.13;;;-146.93;39.71
21664;BME280;10993;52.510;13.456;2024-01-07T20:27:22;57000.19;;;-146.93;40.06
21664;BME280;10993;52.510;13.456;2024-01-07T20:32:24;57064.97;;;-146.93;40.76
21664;BME280;10993;52.510;13.456;2024-01-07T20:37:24;57052.81;;;-146.93;41.22
21664;BME280;10993;52.510;13.456;2024-01-07T20:42:25;57075.09;;;-146.93;41.93
21664;BME280;10993;52.510;13.456;2024-01-07T20:47:26;57075.09;;;-146.93;42.73
21664;BME280;10993;52.510;13.456;2024-01-07T20:52:27;57062.94;;;-146.93;43.73
21664;BME280;10993;52.510;13.456;2024-01-07T20:57:28;58029.00;;;-146.93;45.02
21664;BME280;10993;52.510;13.456;2024-01-07T21:02:31;57085.22;;;-146.93;45.26
21664;BME280;10993;52.510;13.456;2024-01-07T21:07:31;56990.06;;;-146.93;46.06
21664;BME280;10993;52.510;13.456;2024-01-07T21:12:32;57105.47;;;-146.93;46.95
21664;BME280;10993;52.510;13.456;2024-01-07T21:17:33;57099.41;;;-146.93;48.24
21664;BME280;10993;52.510;13.456;2024-01-07T21:22:38;57127.75;;;-146.93;48.78
21664;BME280;10993;52.510;13.456;2024-01-07T21:27:38;57079.16;;;-146.93;50.29
21664;BME280;10993;52.510;13.456;2024-01-07T21:32:40;57121.69;;;-146.93;52.70
21664;BME280;10993;52.510;13.456;2024-01-07T21:37:41;57079.16;;;-146.93;54.65
21664;BME280;10993;52.510;13.456;2024-01-07T21:42:42;57095.34;;;-146.93;56.26
21664;BME280;10993;52.510;13.456;2024-01-07T21:47:44;57113.56;;;-146.93;57.20
21664;BME280;10993;52.510;13.456;2024-01-07T21:52:51;57085.22;;;-146.93;57.83
21664;BME280;10993;52.510;13.456;2024-01-07T21:57:52;57129.78;;;-146.93;58.37
21664;BME280;10993;52.510;13.456;2024-01-07T22:02:53;57099.41;;;-146.93;59.67
21664;BME280;10993;52.510;13.456;2024-01-07T22:07:54;57143.94;;;-146.93;59.14
21664;BME280;10993;52.510;13.456;2024-01-07T22:12:54;57160.16;;;-146.93;60.60
21664;BME280;10993;52.510;13.456;2024-01-07T22:17:56;57152.06;;;-146.93;61.59
21664;BME280;10993;52.510;13.456;2024-01-07T22:22:56;57210.78;;;-146.93;60.01
21664;BME280;10993;52.510;13.456;2024-01-07T22:27:57;57168.25;;;-146.93;60.11
21664;BME280;10993;52.510;13.456;2024-01-07T22:32:59;57127.75;;;-146.93;61.26
21664;BME280;10993;52.510;13.456;2024-01-07T22:38:00;57212.81;;;-146.93;61.87
21664;BME280;10993;52.510;13.456;2024-01-07T22:43:01;57194.56;;;-146.93;61.92
21664;BME280;10993;52.510;13.456;2024-01-07T22:48:05;57222.94;;;-146.93;62.37
21664;BME280;10993;52.510;13.456;2024-01-07T22:53:06;57218.88;;;-146.93;61.33
21664;BME280;10993;52.510;13.456;2024-01-07T22:58:07;57166.22;;;-146.93;61.97
21664;BME280;10993;52.510;13.456;2024-01-07T23:03:08;57229.00;;;-146.93;61.85
21664;BME280;10993;52.510;13.456;2024-01-07T23:08:10;57208.75;;;-146.93;61.71
21664;BME280;10993;52.510;13.456;2024-01-07T23:13:11;57143.94;;;-146.93;61.87
21664;BME280;10993;52.510;13.456;2024-01-07T23:18:12;57168.25;;;-146.93;62.43
21664;BME280;10993;52.510;13.456;2024-01-07T23:23:13;57245.22;;;-146.93;62.73
21664;BME280;10993;52.510;13.456;2024-01-07T23:28:13;57178.38;;;-146.93;63.00
21664;BME280;10993;52.510;13.456;2024-01-07T23:33:15;57131.81;;;-146.93;63.39
21664;BME280;10993;52.510;13.456;2024-01-07T23:38:16;57233.06;;;-146.93;63.57
21664;BME280;10993;52.510;13.456;2024-01-07T23:43:16;57233.06;;;-146.93;63.76
21664;BME280;10993;52.510;13.456;2024-01-07T23:48:18;57984.44;;;-146.93;64.55
21664;BME280;10993;52.510;13.456;2024-01-07T23:53:19;57220.91;;;-146.93;64.77
21664;BME280;10993;52.510;13.456;2024-01-07T23:58:19;57229.00;;;-146.93;64.21
